Terminal Aerodrome Forecast
Issued by NWS

Home | Current Version | Previous Version | Text Only | Print | Product List | Glossary On
Versions: 1 2 3 4 5 6 7 8 9 10 11 12 13 14 15 16 17 18 19 20 21
000
FTUS43 KDLH 231135
TAFHIB
TAF
KHIB 231135Z 2312/2412 34005KT P6SM BKN050
      TEMPO 2312/2313 2SM BR SCT050
     FM231500 34006KT P6SM SCT025
      TEMPO 2318/2321 BKN035
     FM232300 35004KT P6SM VCSH SCT050 BKN080
     FM240500 VRB03KT P6SM SCT050
      TEMPO 2408/2412 3SM BR=

USA.gov is the U.S. government's official web portal to all federal, state and local government web resources and services.